Tiempo atmosférico en la estación meteorológica de Monterrubio De La Demanda, Burgos (1190 m.)



Fecha
DESCASC
Temp. máxima en grados centígrados (hora)
DESCASC
Temp. mínima en grados centígrados (hora)
DESCASC
Temp. media en grados centígrados
DESCASC
Racha de viento máxima en m/sg (hora)
DESCASC
Velocidad máxima media en intervalos de 10 minutos(hora)
DESCASC
Precipitaciones diarias en mm
DESCASC
Precipitaciones de 00:00 a 06:00 en mm
DESCASC
Precipitaciones de 06:00 a 12:00 en mm
DESCASC
Precipitaciones de 12:00 a 18:00 en mm
DESCASC
Precipitaciones de 18:00 a 24:00 en mm
DESCASC
16-04-2019 15.7 (16:40) 3.3 (06:50) 9.5 10.56 (23:59) 6.94 (23:50) 0 0 0 0 0
15-04-2019 19.2 (16:20) 5.1 (04:10) 12.2 17.22 (16:50) 11.94 (16:50) 2 0 0 1.4 0.6
14-04-2019 16.3 (16:50) 5 (00:00) 10.6 11.39 (13:00) 7.78 (13:00) 0 0 0 0 0
13-04-2019 16 (17:00) -4.1 (-00:0) 6 10 (16:20) 7.22 (16:30) 0 0 0 0 0
12-04-2019 11.8 (16:30) 0.1 (00:00) 6 10 (20:20) 6.94 (20:20) 0.2 0.2 0 0 0
11-04-2019 6.9 (17:10) 2.6 (00:00) 4.8 10.28 (15:20) 5.83 (23:59) 1 0.4 0 0 0.6
10-04-2019 8.2 (16:20) 0.6 (00:00) 4.4 10.56 (17:20) 7.5 (17:10) 3.2 2.6 0.4 0.2 0
09-04-2019 5 (16:40) 0.5 (00:00) 2.8 11.67 (16:50) 7.22 (17:50) 9 0 1.2 4.2 3.6
08-04-2019 9.7 (16:00) 2.2 (00:00) 5.9 12.5 (15:10) 8.89 (15:10) 9.8 4.4 4.8 0.6 0
07-04-2019 6.1 (17:30) -0.6 (-00:0) 2.7 9.72 (01:00) 6.39 (01:00) 4.4 0.2 1.4 1.2 1.6
06-04-2019 2.5 (13:50) -0.4 (00:00) 1 12.78 (15:10) 8.61 (13:10) 9 0 0 7 2
05-04-2019 3.1 (12:10) -0.7 (-00:0) 1.2 7.78 (15:10) 4.72 (16:00) 4.4 0.2 1.8 2.4 0
04-04-2019 7.9 (18:10) -8 (-00:0) 0 12.78 (20:30) 8.89 (20:30) 0.6 0 0.6 0 0
03-04-2019 6.2 (13:10) -2.8 (-00:0) 1.7 12.78 (16:10) 7.5 (12:10) 1.4 0 0.6 0.8 0
02-04-2019 13.4 (15:30) -0.5 (-00:0) 6.4 10.56 (14:00) 6.39 (14:00) 0.4 0 0.2 0 0.2
01-04-2019 12.1 (18:10) 2 (00:00) 7.1 8.06 (00:20) 5.28 (00:10) 0 0 0 0 0
31-03-2019 12.8 (17:40) -1.2 (-00:0) 5.8 10 (18:00) 7.78 (18:30) 0 0 0 0 0
30-03-2019 14.4 (13:50) -1.4 (-00:0) 6.5 7.22 (00:10) 4.72 (15:20) 0 0 0 0 0
29-03-2019 15.1 (15:20) -2.2 (-00:0) 6.5 9.72 (14:20) 4.72 (12:30) 0 0 0 0 0
28-03-2019 14.3 (15:00) -1.5 (-00:0) 6.4 11.11 (14:30) 8.61 (17:30) 0 0 0 0 0
27-03-2019 13.9 (15:00) -0.5 (-00:0) 6.7 13.33 (16:30) 8.89 (19:40) 0 0 0 0 0
26-03-2019 12.2 (15:00) 0.1 (00:00) 6.1 15.28 (10:20) 10.83 (10:20) 0 0 0 0 0
25-03-2019 10 (14:30) 0.4 (00:00) 5.2 13.61 (16:50) 9.17 (16:50) 0 0 0 0 0
24-03-2019 16.8 (14:50) -0.6 (-00:0) 8.1 14.17 (21:30) 8.33 (21:30) 0 0 0 0 0
23-03-2019 15.9 (15:50) -1.2 (-00:0) 7.3 9.72 (16:00) 7.5 (16:00) 0 0 0 0 0
22-03-2019 14.9 (15:50) -4.6 (-00:0) 5.1 9.44 (16:40) 6.67 (17:30) 0 0 0 0 0
21-03-2019 10.8 (15:10) -3.7 (-00:0) 3.6 9.72 (10:40) 6.94 (10:40) 0 0 0 0 0
20-03-2019 7.4 (15:10) -0.4 (00:00) 3.5 13.61 (01:00) 7.78 (16:40) 0 0 0 0 0
19-03-2019 5.4 (12:10) 1.1 (00:00) 3.3 15.56 (23:00) 7.78 (23:50) 1 0 0 0.4 0.6

Gráficas

Temp. máximas Temp. mínimas Temp. medias Precipitaciones Rachas de viento máximas Velocidades máximas media en intervalos de 10 minutos

Datos horarios

Fecha y hora oficial Temperatura (ºC) Velocidad del viento (km/h) Dirección del viento Racha (km/h) Dirección de racha Precipitación (mm) Presión (hPa) Tendencia (hPa) Humedad (%)
2019-04-17 23:00:00 10.2 8 Noroeste 12 Oeste 0 -- -- 84
2019-04-17 22:00:00 11.3 5 Oeste 56 Oeste 0 -- -- 77
2019-04-17 21:00:00 14.8 17 Sudeste 26 Sudeste 0 -- -- 56
2019-04-17 20:00:00 15.9 14 Sudeste 27 Sur 0 -- -- 51
2019-04-17 19:00:00 17.2 12 Sudeste 26 Sudoeste 0 -- -- 44
2019-04-17 18:00:00 17.7 12 Sur 37 Sudeste 0 -- -- 41
2019-04-17 17:00:00 17.2 10 Sur 24 Sur 0 -- -- 43
2019-04-17 16:00:00 16.5 13 Sudeste 32 Sudeste 0 -- -- 43
2019-04-17 15:00:00 15.7 10 Sur 22 Sudeste 0 -- -- 50
2019-04-17 14:00:00 15 10 Sudeste 33 Sur 0 -- -- 47
2019-04-17 13:00:00 15.1 6 Sudeste 28 Este 0 -- -- 47
2019-04-17 12:00:00 14.4 11 Sudeste 38 Sur 0 -- -- 48
2019-04-17 11:00:00 13 16 Sudeste 24 Sudeste 0 -- -- 60
2019-04-17 10:00:00 11.3 7 Este 23 Sudeste 0 -- -- 65
2019-04-17 09:00:00 10.3 15 Sudeste 29 Sudeste 0 -- -- 68
2019-04-17 08:00:00 9.5 13 Sudeste 38 Sudeste 0 -- -- 71
2019-04-17 07:00:00 9.4 6 Sudeste 31 Sudeste 0 -- -- 71
2019-04-17 06:00:00 10.1 18 Sudeste 46 Sudeste 0 -- -- 71
2019-04-17 05:00:00 11 21 Este 65 Sudeste 0 -- -- 66
2019-04-17 04:00:00 11.2 37 Sudeste 58 Sudeste 0 -- -- 66
2019-04-17 03:00:00 11.5 24 Sudeste 46 Sudeste 0 -- -- 60
2019-04-17 02:00:00 11.8 18 Sudeste 31 Este 0 -- -- 54
2019-04-17 01:00:00 11.7 18 Este 34 Sudeste 0 -- -- 55
2019-04-17 00:00:00 11.8 24 Sudeste 38 Sudeste 0 -- -- 57
2019-04-16 23:00:00 10.6 10 Este 17 Este 0 -- -- 59
2019-04-16 22:00:00 11.9 9 Este 17 Este 0 -- -- 53
2019-04-16 21:00:00 12.3 5 Sudeste 16 Sudeste 0 -- -- 51
2019-04-16 20:00:00 14 10 Sudeste 22 Sudeste 0 -- -- 43
2019-04-16 19:00:00 15.1 6 Sur 22 Sudeste 0 -- -- 38
2019-04-16 18:00:00 15.1 11 Sudeste 23 Sudeste 0 -- -- 38
2019-04-16 17:00:00 15.3 11 Sur 30 Sudoeste 0 -- -- 38
2019-04-16 16:00:00 15.4 14 Oeste 36 Noroeste 0 -- -- 39
2019-04-16 15:00:00 14.4 18 Noroeste 28 Noroeste 0 -- -- 40
2019-04-16 14:00:00 13.4 6 Norte 19 Sudoeste 0 -- -- 50
2019-04-16 13:00:00 11.6 12 Oeste 23 Sur 0 -- -- 58
2019-04-16 12:00:00 10.5 9 Noroeste 19 Oeste 0 -- -- 66
2019-04-16 11:00:00 9 6 Sudoeste 15 Oeste 0 -- -- 71
2019-04-16 10:00:00 7.3 5 Oeste 12 Oeste 0 -- -- 86
2019-04-16 09:00:00 5.7 0 Calma 3 Sudeste 0 -- -- 98
2019-04-16 08:00:00 4 0 Calma 6 Sudoeste 0 -- -- 97
2019-04-16 07:00:00 3.4 0 Calma 10 Oeste 0 -- -- 97
2019-04-16 06:00:00 4.3 0 Calma 5 Sudeste 0 -- -- 96
2019-04-16 05:00:00 3.9 0 Calma 5 Noroeste 0 -- -- 92
2019-04-16 04:00:00 6.2 2 Sudeste 4 Oeste 0 -- -- 91
2019-04-16 03:00:00 6.6 3 Noroeste 15 Oeste 0 -- -- 92
2019-04-16 02:00:00 7.1 7 Noroeste 14 Oeste 0 -- -- 87
2019-04-16 01:00:00 7.7 3 Noroeste 4 Norte 0 -- -- 81
2019-04-16 00:00:00 7.7 0 Calma 4 Oeste 0 -- -- 77
2019-04-15 23:00:00 8.2 6 Noroeste 25 Noroeste 0 -- -- 75
2019-04-15 22:00:00 9.1 22 Noroeste 48 Oeste 0 -- -- 68
2019-04-15 21:00:00 10.6 13 Oeste 30 Oeste 0 -- -- 77
2019-04-15 20:00:00 11.5 27 Noroeste 41 Noroeste 0 -- -- 75
2019-04-15 19:00:00 12.9 20 Oeste 39 Oeste 0.6 -- -- 76
2019-04-15 18:00:00 12.5 3 Oeste 34 Oeste 1.4 -- -- 81
2019-04-15 17:00:00 12.8 29 Noroeste 62 Oeste 0 -- -- 72
2019-04-15 16:00:00 18.2 28 Sudoeste 51 Oeste 0 -- -- 47
2019-04-15 15:00:00 18.6 26 Sudoeste 47 Sudoeste 0 -- -- 49
2019-04-15 14:00:00 17.3 14 Sudoeste 37 Sudoeste 0 -- -- 57
2019-04-15 13:00:00 16.7 13 Sudoeste 33 Sudoeste 0 -- -- 59
2019-04-15 12:00:00 15.9 13 Sudoeste 26 Sudoeste 0 -- -- 63
2019-04-15 11:00:00 15.4 14 Oeste 22 Oeste 0 -- -- 65
2019-04-15 10:00:00 12.3 6 Este 15 Este 0 -- -- 81
2019-04-15 09:00:00 7.2 2 Norte 8 Oeste 0 -- -- 95
2019-04-15 08:00:00 6.4 2 Sur 13 Sur 0 -- -- 95
2019-04-15 07:00:00 5.6 3 Nordeste 9 Sur 0 -- -- 96
2019-04-15 06:00:00 5.5 0 Calma 8 Oeste 0 -- -- 96
2019-04-15 05:00:00 5.7 2 Noroeste 6 Este 0 -- -- 95
2019-04-15 04:00:00 6.1 0 Calma 4 Sudeste 0 -- -- 93
2019-04-15 03:00:00 6.1 0 Calma 5 Este 0 -- -- 93
2019-04-15 02:00:00 6 0 Calma 4 Oeste 0 -- -- 90
2019-04-15 01:00:00 8.1 0 Calma 4 Este 0 -- -- 86
2019-04-15 00:00:00 8.4 0 Calma 8 Noroeste 0 -- -- 82
2019-04-14 23:00:00 10.4 0 Calma 6 Sudeste 0 -- -- 76
2019-04-14 22:00:00 11 4 Este 6 Este 0 -- -- 75
2019-04-14 21:00:00 13.3 2 Norte 13 Oeste 0 -- -- 67
2019-04-14 20:00:00 14.9 12 Oeste 22 Oeste 0 -- -- 62
2019-04-14 19:00:00 16 3 Norte 23 Oeste 0 -- -- 60
2019-04-14 18:00:00 15.8 18 Oeste 26 Oeste 0 -- -- 60
2019-04-14 17:00:00 16 17 Oeste 34 Oeste 0 -- -- 59
2019-04-14 16:00:00 15.8 18 Oeste 35 Oeste 0 -- -- 61
2019-04-14 15:00:00 15.8 22 Oeste 39 Oeste 0 -- -- 63
2019-04-14 14:00:00 14.9 22 Oeste 39 Oeste 0 -- -- 64
2019-04-14 13:00:00 15 28 Oeste 41 Oeste 0 -- -- 65
2019-04-14 12:00:00 13.3 14 Oeste 24 Oeste 0 -- -- 69
2019-04-14 11:00:00 11.2 9 Oeste 16 Oeste 0 -- -- 76
2019-04-14 10:00:00 9.2 9 Noroeste 15 Oeste 0 -- -- 80
2019-04-14 09:00:00 7.8 2 Sudoeste 10 Norte 0 -- -- 80
2019-04-14 08:00:00 7.6 5 Norte 11 Noroeste 0 -- -- 78
2019-04-14 07:00:00 6.8 6 Noroeste 8 Noroeste 0 -- -- 80
2019-04-14 06:00:00 8.2 4 Norte 14 Noroeste 0 -- -- 72
2019-04-14 05:00:00 5.7 3 Norte 9 Noroeste 0 -- -- 76
2019-04-14 04:00:00 6.1 4 Noroeste 8 Noroeste 0 -- -- 73
2019-04-14 03:00:00 5.3 2 Este 7 Oeste 0 -- -- 72
2019-04-14 02:00:00 5.4 2 Oeste 3 Sudeste 0 -- -- 75
2019-04-14 01:00:00 6.1 0 Calma 4 Oeste 0 -- -- 72
2019-04-14 00:00:00 6.3 0 Calma 2 Nordeste 0 -- -- 63
2019-04-13 23:00:00 7.4 0 Calma 8 Oeste 0 -- -- 59
2019-04-13 22:00:00 9.2 5 Oeste 14 Noroeste 0 -- -- 52
2019-04-13 21:00:00 11.8 10 Noroeste 23 Noroeste 0 -- -- 44
2019-04-13 20:00:00 14.1 15 Oeste 32 Oeste 0 -- -- 33
2019-04-13 19:00:00 15.1 20 Oeste 31 Oeste 0 -- -- 28
2019-04-13 18:00:00 15.6 21 Oeste 32 Oeste 0 -- -- 27
2019-04-13 17:00:00 16 19 Oeste 36 Oeste 0 -- -- 24
2019-04-13 16:00:00 15.7 21 Oeste 36 Oeste 0 -- -- 26
2019-04-13 15:00:00 15.2 19 Oeste 32 Oeste 0 -- -- 26
2019-04-13 14:00:00 14.7 8 Oeste 24 Oeste 0 -- -- 19
2019-04-13 13:00:00 13.7 10 Oeste 21 Oeste 0 -- -- 19
2019-04-13 12:00:00 12.3 5 Sudeste 22 Sudeste 0 -- -- 19
2019-04-13 11:00:00 9.6 14 Sudeste 19 Sudeste 0 -- -- 24
2019-04-13 10:00:00 2 0 Calma 5 Oeste 0 -- -- 73
2019-04-13 09:00:00 -1.9 2 Oeste 9 Este 0 -- -- 82
2019-04-13 08:00:00 -2.8 7 Este 9 Este 0 -- -- 73
2019-04-13 07:00:00 -3.8 3 Este 9 Sur 0 -- -- 82
2019-04-13 06:00:00 -3.1 2 Este 8 Este 0 -- -- 82
2019-04-13 05:00:00 -2.8 4 Este 6 Este 0 -- -- 88
2019-04-13 04:00:00 -2.4 2 Este 5 Oeste 0 -- -- 87
2019-04-13 03:00:00 -1.7 0 Calma 8 Este 0 -- -- 85
2019-04-13 02:00:00 0.3 4 Este 10 Este 0 -- -- 85
2019-04-13 01:00:00 1.5 4 Sudeste 7 Este 0 -- -- 83
2019-04-13 00:00:00 2.6 2 Nordeste 8 Sudeste 0 -- -- 78
2019-04-12 23:00:00 4.5 4 Sudeste 22 Este 0 -- -- 66
2019-04-12 22:00:00 4.8 10 Este 27 Nordeste 0 -- -- 66
2019-04-12 21:00:00 6.7 21 Nordeste 36 Nordeste 0 -- -- 63
2019-04-12 20:00:00 8.6 20 Nordeste 33 Nordeste 0 -- -- 51
2019-04-12 19:00:00 10.2 19 Nordeste 36 Nordeste 0 -- -- 39
2019-04-12 18:00:00 11.1 20 Nordeste 29 Nordeste 0 -- -- 41
2019-04-12 17:00:00 11.4 10 Este 28 Nordeste 0 -- -- 37
2019-04-12 16:00:00 11.2 11 Este 24 Nordeste 0 -- -- 47
2019-04-12 15:00:00 10.7 9 Este 22 Norte 0 -- -- 47
2019-04-12 14:00:00 9.4 9 Sudeste 22 Sudeste 0 -- -- 60
2019-04-12 13:00:00 7.9 11 Sudeste 24 Sudeste 0 -- -- 68
2019-04-12 12:00:00 6.7 12 Nordeste 26 Nordeste 0 -- -- 68
2019-04-12 11:00:00 5.2 11 Este 24 Este 0 -- -- 75
2019-04-12 10:00:00 3.2 13 Este 22 Este 0 -- -- 87
2019-04-12 09:00:00 1.1 9 Sudeste 11 Sudeste 0 -- -- 95
2019-04-12 08:00:00 0.4 6 Sudeste 12 Sudeste 0 -- -- 94
2019-04-12 07:00:00 0.8 3 Este 13 Este 0 -- -- 92
2019-04-12 06:00:00 0.8 5 Este 13 Este 0 -- -- 92
2019-04-12 05:00:00 1.6 5 Este 25 Este 0 -- -- 88
2019-04-12 04:00:00 2.3 18 Nordeste 28 Nordeste 0 -- -- 84
2019-04-12 03:00:00 2.8 8 Este 23 Este 0 -- -- 82
2019-04-12 02:00:00 2.7 12 Sudeste 33 Sudeste 0 -- -- 85
2019-04-12 01:00:00 3.1 12 Nordeste 30 Nordeste 0.2 -- -- 88
2019-04-12 00:00:00 3.3 21 Este 30 Nordeste 0.2 -- -- 87
2019-04-11 23:00:00 3.7 10 Este 29 Sudeste 0 -- -- 86
2019-04-11 22:00:00 4.1 5 Este 18 Sudeste 0.2 -- -- 86
2019-04-11 21:00:00 4.4 7 Sudeste 16 Noroeste 0.2 -- -- 84
2019-04-11 20:00:00 5 4 Sudoeste 16 Noroeste 0 -- -- 80
2019-04-11 19:00:00 5.5 9 Norte 27 Norte 0 -- -- 79
2019-04-11 18:00:00 6.7 13 Noroeste 29 Norte 0 -- -- 69
2019-04-11 17:00:00 6.7 12 Norte 32 Noroeste 0 -- -- 69
2019-04-11 16:00:00 6.2 7 Norte 37 Nordeste 0 -- -- 70
2019-04-11 15:00:00 6.3 15 Noroeste 27 Noroeste 0 -- -- 67
2019-04-11 14:00:00 5.9 7 Norte 23 Norte 0 -- -- 71
2019-04-11 13:00:00 4.9 7 Nordeste 19 Norte 0 -- -- 74
2019-04-11 12:00:00 5.1 12 Noroeste 27 Norte 0 -- -- 73
2019-04-11 11:00:00 4.9 5 Nordeste 25 Noroeste 0 -- -- 73
2019-04-11 10:00:00 3.5 6 Noroeste 17 Norte 0 -- -- 72
2019-04-11 09:00:00 3.1 8 Sudeste 18 Este 0 -- -- 74
2019-04-11 08:00:00 2.7 5 Sur 28 Nordeste 0 -- -- 74
2019-04-11 07:00:00 2.8 9 Este 23 Este 0 -- -- 80
2019-04-11 06:00:00 2.6 6 Este 24 Nordeste 0 -- -- 81
2019-04-11 05:00:00 2.7 12 Este 29 Este 0 -- -- 81
2019-04-11 04:00:00 2.8 4 Nordeste 30 Este 0 -- -- 83
2019-04-11 03:00:00 3.1 12 Nordeste 22 Nordeste 0.2 -- -- 81
2019-04-11 02:00:00 3 9 Nordeste 24 Nordeste 0.2 -- -- 86
2019-04-11 01:00:00 3.4 9 Este 16 Este 0 -- -- 84
2019-04-11 00:00:00 3.8 6 Nordeste 21 Nordeste 0 -- -- 79
2019-04-10 23:00:00 3.8 6 Este 21 Sudeste 0 -- -- 81
2019-04-10 22:00:00 4 9 Nordeste 31 Nordeste 0 -- -- 81
2019-04-10 21:00:00 4.5 4 Sudeste 24 Este 0 -- -- 76
2019-04-10 20:00:00 4.5 11 Este 30 Este 0 -- -- 80
2019-04-10 19:00:00 5.2 14 Este 30 Este 0 -- -- 77
2019-04-10 18:00:00 5.4 8 Nordeste 38 Nordeste 0 -- -- 76
2019-04-10 17:00:00 5.8 23 Nordeste 34 Nordeste 0 -- -- 75
2019-04-10 16:00:00 7.3 13 Norte 32 Norte 0 -- -- 64
2019-04-10 15:00:00 7.4 5 Norte 23 Norte 0 -- -- 71
2019-04-10 14:00:00 5.4 10 Nordeste 23 Nordeste 0 -- -- 79
2019-04-10 13:00:00 4.6 10 Norte 18 Norte 0.2 -- -- 89
2019-04-10 12:00:00 3.6 8 Oeste 15 Oeste 0 -- -- 92
2019-04-10 11:00:00 3 11 Oeste 20 Oeste 0 -- -- 99
2019-04-10 10:00:00 2.1 14 Oeste 19 Oeste 0 -- -- 100
2019-04-10 09:00:00 1.4 12 Oeste 20 Oeste 0 -- -- 100
2019-04-10 08:00:00 1.4 15 Oeste 22 Oeste 0 -- -- 100
2019-04-10 07:00:00 1.7 11 Oeste 21 Oeste 0.4 -- -- 100
2019-04-10 06:00:00 1.9 9 Oeste 17 Oeste 0.6 -- -- 100
2019-04-10 05:00:00 1.5 3 Oeste 5 Oeste 0.6 -- -- 100
2019-04-10 04:00:00 1.3 0 Calma 5 Oeste 0.6 -- -- 99
2019-04-10 03:00:00 1.1 0 Calma 4 Noroeste 0.2 -- -- 99
2019-04-10 02:00:00 1 0 Calma 3 Sudeste 0.4 -- -- 99
2019-04-10 01:00:00 0.7 0 Calma 5 Sudeste 0.2 -- -- 99
2019-04-10 00:00:00 0.9 3 Nordeste 6 Norte 0 -- -- 98
2019-04-09 23:00:00 0.8 3 Nordeste 12 Oeste 1.2 -- -- 97
2019-04-09 22:00:00 2.1 6 Oeste 21 Noroeste 1.8 -- -- 92
2019-04-09 21:00:00 3.9 4 Norte 12 Norte 0.2 -- -- 94
2019-04-09 20:00:00 3.9 2 Sudoeste 12 Oeste 0.2 -- -- 97
2019-04-09 19:00:00 3.4 7 Oeste 32 Oeste 0.2 -- -- 96
2019-04-09 18:00:00 3.8 22 Oeste 40 Oeste 0.4 -- -- 95
2019-04-09 17:00:00 3.3 20 Oeste 42 Oeste 0.8 -- -- 95
2019-04-09 16:00:00 3.8 16 Noroeste 36 Oeste 0.6 -- -- 96
2019-04-09 15:00:00 3.2 15 Oeste 36 Oeste 1.6 -- -- 96
2019-04-09 14:00:00 4.1 16 Noroeste 26 Oeste 0.2 -- -- 95
2019-04-09 13:00:00 3.7 21 Oeste 31 Oeste 0.6 -- -- 95
2019-04-09 12:00:00 3.8 20 Oeste 29 Oeste 0.2 -- -- 94
2019-04-09 11:00:00 2.6 22 Oeste 29 Oeste 0.8 -- -- 97
2019-04-09 10:00:00 2.7 11 Oeste 23 Noroeste 0.2 -- -- 97
2019-04-09 09:00:00 2.3 11 Oeste 29 Oeste 0 -- -- 98
2019-04-09 08:00:00 2.3 18 Oeste 29 Oeste 0 -- -- 98
2019-04-09 07:00:00 2.2 17 Oeste 35 Oeste 0 -- -- 98
2019-04-09 06:00:00 2.4 18 Oeste 29 Oeste 0 -- -- 96
2019-04-09 05:00:00 2.8 16 Oeste 28 Oeste 0 -- -- 95
2019-04-09 04:00:00 3.1 18 Oeste 26 Oeste 0 -- -- 92
2019-04-09 03:00:00 3.2 13 Oeste 19 Oeste 0 -- -- 91
2019-04-09 02:00:00 3.2 5 Noroeste 9 Oeste 0 -- -- 88
2019-04-09 01:00:00 2.6 4 Oeste 10 Oeste 0 -- -- 85
2019-04-09 00:00:00 2.8 5 Norte 8 Noroeste 0 -- -- 82
2019-04-08 23:00:00 2.3 0 Calma 6 Oeste 0 -- -- 79
2019-04-08 22:00:00 3.8 3 Oeste 7 Norte 0 -- -- 72
2019-04-08 21:00:00 5.8 5 Noroeste 24 Noroeste 0 -- -- 61
2019-04-08 20:00:00 8.3 10 Noroeste 38 Oeste 0 -- -- 57
2019-04-08 19:00:00 9.3 21 Noroeste 40 Oeste 0 -- -- 55
2019-04-08 18:00:00 9.5 24 Oeste 39 Noroeste 0 -- -- 58
2019-04-08 17:00:00 8.4 20 Oeste 31 Oeste 0 -- -- 64
2019-04-08 16:00:00 9.7 28 Oeste 45 Oeste 0 -- -- 63
2019-04-08 15:00:00 9.1 28 Oeste 42 Oeste 0.6 -- -- 70
2019-04-08 14:00:00 8 22 Sudoeste 38 Oeste 0 -- -- 77
2019-04-08 13:00:00 8 26 Oeste 36 Noroeste 0 -- -- 80
2019-04-08 12:00:00 6.9 22 Oeste 35 Oeste 0 -- -- 87
2019-04-08 11:00:00 5.9 23 Oeste 39 Oeste 0.2 -- -- 96
2019-04-08 10:00:00 5.5 17 Oeste 35 Oeste 0.4 -- -- 100
2019-04-08 09:00:00 5.3 14 Oeste 19 Noroeste 1.2 -- -- 100
2019-04-08 08:00:00 4.8 10 Noroeste 14 Noroeste 1.4 -- -- 99
2019-04-08 07:00:00 4.4 8 Noroeste 15 Noroeste 1.6 -- -- 99
2019-04-08 06:00:00 3.9 9 Noroeste 17 Noroeste 0.8 -- -- 99
2019-04-08 05:00:00 3.8 13 Noroeste 20 Noroeste 0.4 -- -- 98
2019-04-08 04:00:00 3.5 10 Noroeste 23 Noroeste 0.8 -- -- 96
2019-04-08 03:00:00 3.3 12 Noroeste 23 Noroeste 1 -- -- 96
2019-04-08 02:00:00 2.4 6 Oeste 14 Noroeste 0.4 -- -- 96
2019-04-08 01:00:00 2.6 10 Norte 18 Noroeste 1 -- -- 94
2019-04-08 00:00:00 2.2 12 Norte 17 Noroeste 1 -- -- 95
2019-04-07 23:00:00 2.6 10 Oeste 27 Oeste 0.2 -- -- 94
2019-04-07 22:00:00 3.1 10 Oeste 30 Oeste 0.4 -- -- 93
2019-04-07 21:00:00 4.1 18 Oeste 34 Oeste 0 -- -- 78
2019-04-07 20:00:00 5.8 8 Oeste 22 Oeste 0 -- -- 67
2019-04-07 19:00:00 6 11 Sudoeste 26 Oeste 0 -- -- 62
2019-04-07 18:00:00 6 14 Sudoeste 28 Oeste 0 -- -- 66
2019-04-07 17:00:00 5.7 8 Sudoeste 22 Sudoeste 0 -- -- 72
2019-04-07 16:00:00 5.2 10 Oeste 27 Oeste 0 -- -- 72
2019-04-07 15:00:00 3.9 17 Oeste 27 Oeste 0 -- -- 79
2019-04-07 14:00:00 3.2 10 Noroeste 24 Oeste 0 -- -- 81
2019-04-07 13:00:00 1.9 13 Oeste 25 Noroeste 1.2 -- -- 88
2019-04-07 12:00:00 0.8 14 Oeste 25 Oeste 1.4 -- -- 95
2019-04-07 11:00:00 -0.3 16 Oeste 24 Oeste 0 -- -- 98
2019-04-07 10:00:00 -0.4 15 Oeste 24 Oeste 0 -- -- 98
2019-04-07 09:00:00 -0.5 13 Oeste 27 Oeste 0 -- -- 98
2019-04-07 08:00:00 -0.4 17 Oeste 27 Oeste 0 -- -- 98
2019-04-07 07:00:00 -0.4 15 Oeste 27 Oeste 0 -- -- 99
2019-04-07 06:00:00 -0.3 16 Oeste 28 Oeste 0 -- -- 99
2019-04-07 05:00:00 -0.2 20 Oeste 35 Oeste 0 -- -- 98
2019-04-07 04:00:00 -0.1 22 Oeste 33 Oeste 0 -- -- 96
2019-04-07 03:00:00 0.2 11 Noroeste 26 Oeste 0 -- -- 94
2019-04-07 02:00:00 0.3 17 Oeste 35 Oeste 0.2 -- -- 97
2019-04-07 01:00:00 0.2 23 Oeste 35 Noroeste 0 -- -- 100
2019-04-07 00:00:00 0.5 18 Noroeste 27 Oeste 0 -- -- 100
2019-04-06 23:00:00 0.2 12 Oeste 27 Oeste 0.2 -- -- 100
2019-04-06 22:00:00 0.7 9 Noroeste 21 Oeste 0.2 -- -- 99
2019-04-06 21:00:00 0.6 8 Noroeste 27 Oeste 0.6 -- -- 98
2019-04-06 20:00:00 0.7 17 Noroeste 28 Oeste 0.4 -- -- 96
2019-04-06 19:00:00 1.7 2 Noroeste 22 Noroeste 0.6 -- -- 96
2019-04-06 18:00:00 2 12 Noroeste 42 Oeste 2.2 -- -- 94
2019-04-06 17:00:00 1.6 12 Noroeste 41 Oeste 1.6 -- -- 99
2019-04-06 16:00:00 1.2 17 Noroeste 46 Oeste 0.2 -- -- 98
2019-04-06 15:00:00 1.7 14 Oeste 38 Oeste 1 -- -- 95
2019-04-06 14:00:00 2.2 22 Oeste 44 Oeste 1.2 -- -- 85
2019-04-06 13:00:00 1.7 26 Oeste 43 Oeste 0.8 -- -- 87
2019-04-06 12:00:00 0.7 14 Oeste 39 Oeste 0 -- -- 95
2019-04-06 11:00:00 0.1 17 Oeste 27 Oeste 0 -- -- 97
2019-04-06 10:00:00 -0.2 12 Oeste 23 Oeste 0 -- -- 97
2019-04-06 09:00:00 -0.4 10 Oeste 30 Oeste 0 -- -- 97
2019-04-06 08:00:00 -0.3 19 Oeste 32 Oeste 0 -- -- 98
2019-04-06 07:00:00 -0.2 18 Oeste 32 Oeste 0 -- -- 98
2019-04-06 06:00:00 -0.2 17 Oeste 32 Oeste 0 -- -- 99
2019-04-06 05:00:00 0 15 Oeste 27 Oeste 0 -- -- 99
2019-04-06 04:00:00 0 10 Oeste 17 Noroeste 0 -- -- 99
2019-04-06 03:00:00 -0.1 7 Oeste 14 Noroeste 0 -- -- 99
2019-04-06 02:00:00 -0.2 10 Noroeste 23 Noroeste 0 -- -- 98
2019-04-06 01:00:00 0 9 Sudoeste 18 Noroeste 0 -- -- 96
2019-04-06 00:00:00 -0.1 8 Sudoeste 13 Sudoeste 0 -- -- 97
2019-04-05 23:00:00 -0.7 4 Sudoeste 10 Sudoeste 0 -- -- 97
2019-04-05 22:00:00 -0.6 4 Sudoeste 6 Sudoeste 0 -- -- 97
2019-04-05 21:00:00 -0.1 4 Sudoeste 19 Oeste 0 -- -- 96
2019-04-05 20:00:00 0.7 13 Oeste 19 Oeste 0 -- -- 95
2019-04-05 19:00:00 1.6 6 Oeste 14 Oeste 0 -- -- 94
2019-04-05 18:00:00 1.6 7 Oeste 12 Oeste 0.6 -- -- 96
2019-04-05 17:00:00 0.6 5 Oeste 28 Oeste 0.8 -- -- 98
2019-04-05 16:00:00 1 17 Oeste 28 Oeste 0.2 -- -- 93
2019-04-05 15:00:00 2.8 9 Noroeste 16 Noroeste 0 -- -- 89
2019-04-05 14:00:00 1.7 10 Noroeste 21 Oeste 0.6 -- -- 96
2019-04-05 13:00:00 1.7 14 Noroeste 23 Noroeste 0.2 -- -- 91
2019-04-05 12:00:00 2.9 8 Este 13 Este 0.4 -- -- 91
2019-04-05 11:00:00 2.7 5 Noroeste 22 Oeste 0 -- -- 91
2019-04-05 10:00:00 2.1 9 Oeste 18 Oeste 0.2 -- -- 92
2019-04-05 09:00:00 1.9 6 Oeste 14 Oeste 0.4 -- -- 92
2019-04-05 08:00:00 1.3 4 Noroeste 14 Noroeste 0.8 -- -- 94
2019-04-05 07:00:00 0.9 4 Noroeste 13 Noroeste 0 -- -- 94
2019-04-05 06:00:00 1.2 6 Noroeste 14 Noroeste 0.2 -- -- 91
2019-04-05 05:00:00 1.2 7 Noroeste 14 Noroeste 0 -- -- 91
2019-04-05 04:00:00 0.4 2 Oeste 11 Noroeste 0 -- -- 93
2019-04-05 03:00:00 0.4 4 Noroeste 6 Oeste 0 -- -- 90
2019-04-05 02:00:00 0.6 0 Calma 3 Noroeste 0 -- -- 87
2019-04-05 01:00:00 0.9 0 Calma 6 Nordeste 0 -- -- 86
2019-04-05 00:00:00 1.4 3 Noroeste 9 Sudoeste 0 -- -- 84
2019-04-04 23:00:00 2.3 7 Sudoeste 28 Oeste 0 -- -- 78
2019-04-04 22:00:00 3.3 21 Oeste 34 Oeste 0 -- -- 64
2019-04-04 21:00:00 4.1 20 Noroeste 46 Oeste 0 -- -- 52
2019-04-04 20:00:00 5.9 26 Oeste 39 Oeste 0 -- -- 39
2019-04-04 19:00:00 6.4 24 Oeste 45 Sudoeste 0 -- -- 35
2019-04-04 18:00:00 7.7 29 Oeste 45 Oeste 0 -- -- 34
2019-04-04 17:00:00 7 26 Sudoeste 43 Oeste 0 -- -- 39
2019-04-04 16:00:00 6.4 27 Oeste 42 Oeste 0 -- -- 45
2019-04-04 15:00:00 4.8 18 Oeste 33 Oeste 0 -- -- 52
2019-04-04 14:00:00 4 19 Oeste 30 Oeste 0 -- -- 60
2019-04-04 13:00:00 1.3 16 Oeste 30 Oeste 0 -- -- 71
2019-04-04 12:00:00 1.5 20 Oeste 32 Oeste 0 -- -- 71
2019-04-04 11:00:00 -0.2 13 Oeste 20 Oeste 0.4 -- -- 82
2019-04-04 10:00:00 -2.4 0 Calma 5 Noroeste 0.2 -- -- 88
2019-04-04 09:00:00 -6.1 2 Noroeste 6 Este 0 -- -- 88
2019-04-04 08:00:00 -7.5 0 Calma 6 Noroeste 0 -- -- 91
2019-04-04 07:00:00 -7.3 0 Calma 3 Nordeste 0 -- -- 92
2019-04-04 06:00:00 -6.6 0 Calma 4 Nordeste 0 -- -- 89
2019-04-04 05:00:00 -5.8 2 Noroeste 8 Norte 0 -- -- 88
2019-04-04 04:00:00 -5.8 0 Calma 6 Oeste 0 -- -- 92
2019-04-04 03:00:00 -5.7 4 Oeste 7 Noroeste 0 -- -- 90
2019-04-04 02:00:00 -4.4 3 Oeste 8 Norte 0 -- -- 87
2019-04-04 01:00:00 -2.5 4 Noroeste 7 Noroeste 0 -- -- 78
2019-04-04 00:00:00 -2.6 0 Calma 11 Oeste 0 -- -- 84
2019-04-03 23:00:00 -2.6 3 Noroeste 8 Este 0 -- -- 89
2019-04-03 22:00:00 -2 2 Sudeste 6 Norte 0 -- -- 86
2019-04-03 21:00:00 -0.3 3 Norte 17 Nordeste 0 -- -- 78
2019-04-03 20:00:00 0.6 8 Norte 28 Nordeste 0 -- -- 80
2019-04-03 19:00:00 2.5 9 Norte 30 Noroeste 0 -- -- 67
2019-04-03 18:00:00 2.7 4 Noroeste 22 Norte 0 -- -- 78
2019-04-03 17:00:00 2.6 10 Sudoeste 46 Norte 0.6 -- -- 87
2019-04-03 16:00:00 3.3 16 Oeste 41 Noroeste 0.2 -- -- 74
2019-04-03 15:00:00 5.2 11 Noroeste 29 Oeste 0 -- -- 64
2019-04-03 14:00:00 5.6 23 Oeste 40 Oeste 0 -- -- 56
2019-04-03 13:00:00 5.3 22 Oeste 37 Oeste 0 -- -- 56
2019-04-03 12:00:00 4.5 19 Oeste 32 Oeste 0 -- -- 76
2019-04-03 11:00:00 2.7 13 Oeste 29 Oeste 0.6 -- -- 96
2019-04-03 10:00:00 2.4 12 Oeste 22 Oeste 0 -- -- 100
2019-04-03 09:00:00 2.3 13 Oeste 21 Oeste 0 -- -- 99
2019-04-03 08:00:00 2.5 11 Oeste 17 Oeste 0 -- -- 98
2019-04-03 07:00:00 3.3 9 Noroeste 16 Noroeste 0 -- -- 97
2019-04-03 06:00:00 3.4 7 Noroeste 10 Noroeste 0 -- -- 98
2019-04-03 05:00:00 4.2 6 Oeste 8 Noroeste 0 -- -- 98
2019-04-03 04:00:00 4.2 5 Sudeste 14 Este 0 -- -- 98
2019-04-03 03:00:00 4.1 10 Este 15 Sudeste 0 -- -- 98
2019-04-03 02:00:00 4.2 13 Este 21 Este 0 -- -- 97
2019-04-03 01:00:00 4.4 14 Sudeste 28 Este 0 -- -- 97
2019-04-03 00:00:00 4.5 22 Este 30 Este 0 -- -- 96
2019-04-02 23:00:00 5.1 17 Este 25 Este 0 -- -- 92
2019-04-02 22:00:00 5 12 Este 23 Nordeste 0 -- -- 89
2019-04-02 21:00:00 7 13 Nordeste 21 Nordeste 0.2 -- -- 81
2019-04-02 20:00:00 8.6 6 Sudeste 24 Este 0 -- -- 75
2019-04-02 19:00:00 9.2 21 Este 29 Este 0 -- -- 69
2019-04-02 18:00:00 9.9 18 Este 27 Este 0 -- -- 71
2019-04-02 17:00:00 10.5 16 Este 31 Este 0 -- -- 65
2019-04-02 16:00:00 12.4 7 Norte 35 Oeste 0 -- -- 55
2019-04-02 15:00:00 12.4 17 Oeste 28 Norte 0 -- -- 49
2019-04-02 14:00:00 11.5 23 Oeste 38 Oeste 0 -- -- 54
2019-04-02 13:00:00 11.8 5 Noroeste 19 Sudeste 0 -- -- 56
2019-04-02 12:00:00 8.4 14 Este 20 Este 0 -- -- 73
2019-04-02 11:00:00 7.2 14 Sudeste 17 Sudeste 0.2 -- -- 92
2019-04-02 10:00:00 4.8 7 Sudeste 15 Sudeste 0 -- -- 99
2019-04-02 09:00:00 1.2 4 Noroeste 6 Oeste 0 -- -- 98
2019-04-02 08:00:00 0.4 0 Calma 4 Noroeste 0 -- -- 98
2019-04-02 07:00:00 -0.1 2 Este 5 Oeste 0 -- -- 98
2019-04-02 06:00:00 -0.2 0 Calma 6 Oeste 0 -- -- 95
2019-04-02 05:00:00 1.1 5 Noroeste 8 Noroeste 0 -- -- 96
2019-04-02 04:00:00 0.4 0 Calma 3 Oeste 0 -- -- 96
2019-04-02 03:00:00 1.2 0 Calma 4 Oeste 0 -- -- 94
2019-04-02 02:00:00 1 2 Este 3 Sudoeste 0 -- -- 93
2019-04-02 01:00:00 1.9 3 Noroeste 7 Oeste 0 -- -- 92
2019-04-02 00:00:00 4.1 3 Este 12 Este 0 -- -- 91
2019-04-01 23:00:00 5.1 2 Este 14 Este 0 -- -- 86
2019-04-01 22:00:00 6.2 13 Este 20 Este 0 -- -- 86
2019-04-01 21:00:00 7.4 16 Este 24 Este 0 -- -- 82
2019-04-01 20:00:00 9.3 17 Este 22 Sudeste 0 -- -- 73
2019-04-01 19:00:00 11.6 5 Noroeste 21 Oeste 0 -- -- 52
2019-04-01 18:00:00 11.4 7 Oeste 22 Oeste 0 -- -- 57
2019-04-01 17:00:00 11.1 10 Noroeste 19 Noroeste 0 -- -- 61
2019-04-01 16:00:00 10.1 8 Noroeste 17 Noroeste 0 -- -- 66
2019-04-01 15:00:00 8.3 12 Oeste 17 Sudoeste 0 -- -- 74
2019-04-01 14:00:00 8.1 2 Nordeste 6 Noroeste 0 -- -- 75
2019-04-01 13:00:00 7 4 Sudeste 13 Este 0 -- -- 80
2019-04-01 12:00:00 7.1 6 Sudeste 12 Sudeste 0 -- -- 81
2019-04-01 11:00:00 5.5 2 Sudoeste 4 Sudoeste 0 -- -- 85
2019-04-01 10:00:00 4.2 0 Calma 3 Sudoeste 0 -- -- 91
2019-04-01 09:00:00 3.6 2 Norte 3 Norte 0 -- -- 94
2019-04-01 08:00:00 2.6 0 Calma 4 Este 0 -- -- 93
2019-04-01 07:00:00 2.4 0 Calma 4 Este 0 -- -- 92
2019-04-01 06:00:00 3.3 2 Norte 8 Este 0 -- -- 91
2019-04-01 05:00:00 3.9 3 Sudeste 11 Este 0 -- -- 91
2019-04-01 04:00:00 3.9 9 Este 16 Este 0 -- -- 91
2019-04-01 03:00:00 3.9 11 Este 18 Sudeste 0 -- -- 92
2019-04-01 02:00:00 4.2 14 Sudeste 21 Este 0 -- -- 91
2019-04-01 01:00:00 4.6 10 Este 29 Este 0 -- -- 88
2019-04-01 00:00:00 6.2 19 Este 27 Este 0 -- -- 76
2019-03-31 23:00:00 6.8 13 Este 21 Este 0 -- -- 68
2019-03-31 22:00:00 7.4 19 Este 35 Este 0 -- -- 65
2019-03-31 21:00:00 8.7 21 Este 33 Sudeste 0 -- -- 53
2019-03-31 20:00:00 9.9 26 Sudeste 35 Este 0 -- -- 49
2019-03-31 19:00:00 11.2 18 Sudeste 35 Este 0 -- -- 45
2019-03-31 18:00:00 12.3 27 Sudeste 36 Sudeste 0 -- -- 44
2019-03-31 17:00:00 12.2 25 Sudeste 35 Este 0 -- -- 42
2019-03-31 16:00:00 12.5 15 Sudeste 30 Sudeste 0 -- -- 39
2019-03-31 15:00:00 12 19 Sudeste 27 Sudeste 0 -- -- 40
2019-03-31 14:00:00 12.2 16 Este 31 Sudeste 0 -- -- 38
2019-03-31 13:00:00 11.8 21 Este 30 Este 0 -- -- 35
2019-03-31 12:00:00 11.2 22 Sudeste 30 Este 0 -- -- 38
2019-03-31 11:00:00 7 10 Sudeste 24 Este 0 -- -- 53
2019-03-31 10:00:00 5.7 15 Sudeste 19 Este 0 -- -- 59
2019-03-31 09:00:00 1.4 10 Este 14 Este 0 -- -- 74
2019-03-31 08:00:00 -1.2 0 Calma 5 Este 0 -- -- 81
2019-03-31 07:00:00 -1.2 2 Nordeste 5 Oeste 0 -- -- 79
2019-03-31 06:00:00 -0.8 0 Calma 5 Oeste 0 -- -- 79
2019-03-31 05:00:00 0.1 4 Este 9 Sur 0 -- -- 74
2019-03-31 03:00:00 1.2 0 Calma 5 Este 0 -- -- 77
2019-03-31 01:00:00 2 2 Este 5 Noroeste 0 -- -- 74
2019-03-31 00:00:00 2.8 0 Calma 8 Este 0 -- -- 72
2019-03-30 23:00:00 3.8 0 Calma 8 Este 0 -- -- 71
2019-03-30 22:00:00 5.3 2 Sudoeste 14 Este 0 -- -- 65
2019-03-30 21:00:00 6.3 9 Este 15 Este 0 -- -- 62
2019-03-30 20:00:00 8.5 3 Este 20 Nordeste 0 -- -- 55
2019-03-30 19:00:00 10.5 12 Este 22 Sudeste 0 -- -- 51
2019-03-30 18:00:00 12 14 Sudeste 23 Sudeste 0 -- -- 48
2019-03-30 17:00:00 12.7 17 Sudeste 24 Este 0 -- -- 42
2019-03-30 16:00:00 12.7 14 Sudeste 23 Sudeste 0 -- -- 39
2019-03-30 15:00:00 12.5 12 Este 19 Este 0 -- -- 36
2019-03-30 14:00:00 13.9 8 Sudeste 21 Sudoeste 0 -- -- 32
2019-03-30 13:00:00 13.4 7 Sudoeste 19 Oeste 0 -- -- 36
2019-03-30 12:00:00 11.1 6 Noroeste 13 Noroeste 0 -- -- 39
2019-03-30 11:00:00 11.3 8 Oeste 14 Oeste 0 -- -- 41
2019-03-30 10:00:00 8.5 3 Oeste 6 Oeste 0 -- -- 60
2019-03-30 09:00:00 3.4 0 Calma 4 Oeste 0 -- -- 77
2019-03-30 08:00:00 -0.3 4 Noroeste 5 Noroeste 0 -- -- 86
2019-03-30 07:00:00 -1.4 0 Calma 4 Este 0 -- -- 85
2019-03-30 06:00:00 -1.2 2 Este 4 Este 0 -- -- 85
2019-03-30 05:00:00 0 0 Calma 4 Este 0 -- -- 80
2019-03-30 04:00:00 1.2 0 Calma 4 Noroeste 0 -- -- 74
2019-03-30 03:00:00 1.5 0 Calma 4 Sudoeste 0 -- -- 74
2019-03-30 02:00:00 3.1 0 Calma 12 Este 0 -- -- 69
2019-03-30 01:00:00 6 8 Este 26 Este 0 -- -- 58
2019-03-30 00:00:00 5.2 8 Sudeste 24 Este 0 -- -- 56
2019-03-29 23:00:00 6 10 Este 22 Sudeste 0 -- -- 46
2019-03-29 22:00:00 4.7 4 Este 8 Sur 0 -- -- 46
2019-03-29 21:00:00 7.3 2 Norte 11 Este 0 -- -- 38
2019-03-29 20:00:00 10.2 2 Este 19 Sudeste 0 -- -- 32
2019-03-29 19:00:00 12.4 11 Sudeste 22 Sur 0 -- -- 27
2019-03-29 18:00:00 14 13 Sur 28 Sudoeste 0 -- -- 28
2019-03-29 17:00:00 14.7 14 Sur 30 Sur 0 -- -- 31
2019-03-29 16:00:00 14.9 15 Sudeste 32 Sur 0 -- -- 30
2019-03-29 15:00:00 14.8 14 Sudoeste 35 Sudoeste 0 -- -- 31
2019-03-29 14:00:00 14.5 14 Oeste 32 Oeste 0 -- -- 31
2019-03-29 13:00:00 13.3 11 Sudeste 28 Sudoeste 0 -- -- 37
2019-03-29 12:00:00 13.1 9 Oeste 24 Oeste 0 -- -- 34
2019-03-29 11:00:00 11.5 5 Noroeste 18 Oeste 0 -- -- 38
2019-03-29 10:00:00 7.8 4 Oeste 6 Noroeste 0 -- -- 64
2019-03-29 09:00:00 3 2 Oeste 4 Oeste 0 -- -- 81
2019-03-29 08:00:00 -0.4 0 Calma 2 Norte 0 -- -- 88
2019-03-29 07:00:00 -1.4 0 Calma 5 Oeste 0 -- -- 90
2019-03-29 06:00:00 -2.1 0 Calma 7 Noroeste 0 -- -- 87
2019-03-29 05:00:00 -0.8 0 Calma 9 Sudeste 0 -- -- 88
2019-03-29 04:00:00 -1 2 Sudeste 12 Sur 0 -- -- 91
2019-03-29 03:00:00 -0.3 2 Nordeste 6 Sudeste 0 -- -- 90
2019-03-29 02:00:00 1 3 Sudeste 14 Este 0 -- -- 86
2019-03-29 01:00:00 2 8 Este 17 Este 0 -- -- 88
2019-03-29 00:00:00 2.7 6 Este 20 Este 0 -- -- 86
2019-03-28 23:00:00 3.7 9 Este 20 Este 0 -- -- 82
2019-03-28 22:00:00 5.7 12 Este 21 Este 0 -- -- 75
2019-03-28 21:00:00 7 16 Este 24 Este 0 -- -- 66
2019-03-28 20:00:00 8.1 13 Este 24 Nordeste 0 -- -- 60
2019-03-28 19:00:00 10.6 14 Este 28 Sudeste 0 -- -- 52
2019-03-28 18:00:00 12.8 21 Sudeste 39 Este 0 -- -- 35
2019-03-28 17:00:00 13.4 26 Sudeste 35 Sudeste 0 -- -- 32
2019-03-28 16:00:00 14.3 23 Sudeste 39 Sudeste 0 -- -- 30
2019-03-28 15:00:00 14.3 26 Sudeste 40 Este 0 -- -- 26
2019-03-28 14:00:00 13.9 24 Sudeste 37 Sudeste 0 -- -- 28
2019-03-28 13:00:00 12.4 23 Sudeste 35 Este 0 -- -- 31
2019-03-28 12:00:00 10.8 23 Sudeste 35 Este 0 -- -- 36
2019-03-28 11:00:00 8.6 20 Este 35 Este 0 -- -- 46
2019-03-28 10:00:00 6.2 24 Este 31 Este 0 -- -- 56
2019-03-28 09:00:00 4.2 22 Este 30 Este 0 -- -- 66
2019-03-28 08:00:00 1 12 Sudeste 19 Sudeste 0 -- -- 79
2019-03-28 07:00:00 -1.5 8 Este 16 Este 0 -- -- 85
2019-03-28 06:00:00 -0.5 8 Sudeste 18 Sur 0 -- -- 80
2019-03-28 05:00:00 0.6 17 Sudeste 31 Este 0 -- -- 74
2019-03-28 04:00:00 0.1 16 Este 21 Este 0 -- -- 76
2019-03-28 03:00:00 0.6 11 Sudeste 16 Sur 0 -- -- 74
2019-03-28 02:00:00 0.2 9 Sudeste 19 Sudeste 0 -- -- 76
2019-03-28 01:00:00 1.1 6 Sudeste 39 Este 0 -- -- 70
2019-03-28 00:00:00 1.7 10 Este 21 Este 0 -- -- 70
2019-03-27 23:00:00 2.9 11 Este 23 Nordeste 0 -- -- 64
2019-03-27 22:00:00 3.9 17 Nordeste 27 Este 0 -- -- 62
2019-03-27 21:00:00 5.6 16 Nordeste 46 Nordeste 0 -- -- 51
2019-03-27 20:00:00 6.4 30 Nordeste 48 Nordeste 0 -- -- 51
2019-03-27 19:00:00 8.1 24 Nordeste 42 Nordeste 0 -- -- 40
2019-03-27 18:00:00 10 24 Nordeste 41 Nordeste 0 -- -- 33
2019-03-27 17:00:00 11.6 18 Nordeste 48 Nordeste 0 -- -- 29
2019-03-27 16:00:00 11.7 28 Nordeste 41 Nordeste 0 -- -- 30
2019-03-27 15:00:00 13.9 14 Este 34 Este 0 -- -- 23
2019-03-27 14:00:00 13.6 21 Sudeste 32 Sudeste 0 -- -- 25
2019-03-27 13:00:00 13 21 Sudeste 36 Sudeste 0 -- -- 21
2019-03-27 12:00:00 11.8 19 Sudeste 35 Sudeste 0 -- -- 19
2019-03-27 11:00:00 10.2 22 Este 35 Este 0 -- -- 20
2019-03-27 10:00:00 8 22 Este 33 Este 0 -- -- 28
2019-03-27 09:00:00 5.3 21 Este 35 Este 0 -- -- 38
2019-03-27 08:00:00 3.8 15 Este 30 Este 0 -- -- 40
2019-03-27 07:00:00 2.9 18 Este 30 Este 0 -- -- 39
2019-03-27 06:00:00 2.7 15 Este 30 Este 0 -- -- 41
2019-03-27 05:00:00 2.6 18 Este 32 Este 0 -- -- 42
2019-03-27 04:00:00 -0.3 6 Sudeste 29 Este 0 -- -- 59
2019-03-27 03:00:00 2.1 14 Este 39 Este 0 -- -- 47
2019-03-27 02:00:00 1.6 23 Este 35 Este 0 -- -- 54
2019-03-27 01:00:00 2 22 Este 33 Este 0 -- -- 52
2019-03-27 00:00:00 1.8 21 Este 33 Este 0 -- -- 52
2019-03-26 23:00:00 2.5 17 Este 28 Este 0 -- -- 48
2019-03-26 22:00:00 2.9 12 Este 26 Nordeste 0 -- -- 44
2019-03-26 21:00:00 4.4 14 Nordeste 31 Nordeste 0 -- -- 39
2019-03-26 20:00:00 5.7 25 Nordeste 35 Este 0 -- -- 36
2019-03-26 19:00:00 8.1 18 Nordeste 49 Nordeste 0 -- -- 32
2019-03-26 18:00:00 9.5 31 Nordeste 43 Nordeste 0 -- -- 31
2019-03-26 17:00:00 10.5 34 Nordeste 51 Nordeste 0 -- -- 29
2019-03-26 16:00:00 12.1 27 Este 45 Sudeste 0 -- -- 25
2019-03-26 15:00:00 12.2 33 Sudeste 44 Sudeste 0 -- -- 20
2019-03-26 14:00:00 11.2 27 Sudeste 40 Sudeste 0 -- -- 29
2019-03-26 13:00:00 10.1 28 Sudeste 42 Sudeste 0 -- -- 32
2019-03-26 12:00:00 8.8 27 Sudeste 46 Sudeste 0 -- -- 33
2019-03-26 11:00:00 6.9 30 Sudeste 55 Sudeste 0 -- -- 38
2019-03-26 10:00:00 5.4 31 Sudeste 47 Este 0 -- -- 44
2019-03-26 09:00:00 2.9 27 Este 46 Sudeste 0 -- -- 65
2019-03-26 08:00:00 0.8 20 Este 36 Este 0 -- -- 82
2019-03-26 07:00:00 0.1 26 Este 43 Este 0 -- -- 85
2019-03-26 06:00:00 0.5 23 Este 37 Este 0 -- -- 84
2019-03-26 05:00:00 0.9 17 Nordeste 29 Este 0 -- -- 85
2019-03-26 04:00:00 0.9 15 Este 26 Este 0 -- -- 85
2019-03-26 03:00:00 0.8 14 Este 27 Este 0 -- -- 83
2019-03-26 02:00:00 0.3 23 Este 32 Este 0 -- -- 85
2019-03-26 01:00:00 0.3 18 Este 28 Este 0 -- -- 83
2019-03-26 00:00:00 0.4 17 Este 32 Este 0 -- -- 81
2019-03-25 23:00:00 1.5 17 Este 28 Este 0 -- -- 79
2019-03-25 22:00:00 2.2 16 Nordeste 27 Este 0 -- -- 75
2019-03-25 21:00:00 2.9 15 Este 34 Nordeste 0 -- -- 72
2019-03-25 20:00:00 3.7 26 Nordeste 41 Nordeste 0 -- -- 71
2019-03-25 19:00:00 5.4 24 Nordeste 42 Nordeste 0 -- -- 66
2019-03-25 18:00:00 7 27 Nordeste 49 Nordeste 0 -- -- 55
2019-03-25 17:00:00 7.6 32 Nordeste 49 Nordeste 0 -- -- 53
2019-03-25 16:00:00 8.7 29 Nordeste 42 Nordeste 0 -- -- 52
2019-03-25 15:00:00 10 17 Este 35 Este 0 -- -- 49
2019-03-25 14:00:00 9.3 18 Este 34 Este 0 -- -- 54
2019-03-25 13:00:00 9 16 Este 30 Este 0 -- -- 58
2019-03-25 12:00:00 8.4 13 Este 31 Este 0 -- -- 60
2019-03-25 11:00:00 7.2 20 Este 31 Este 0 -- -- 64
2019-03-25 10:00:00 6.3 22 Sudeste 31 Este 0 -- -- 73
2019-03-25 09:00:00 4.3 13 Este 28 Este 0 -- -- 84
2019-03-25 08:00:00 2.2 16 Este 30 Este 0 -- -- 89
2019-03-25 07:00:00 1.8 26 Este 35 Este 0 -- -- 91
2019-03-25 06:00:00 1.5 14 Este 22 Este 0 -- -- 87
2019-03-25 05:00:00 1.7 15 Este 19 Sudeste 0 -- -- 84
2019-03-25 04:00:00 1.7 11 Sudeste 19 Este 0 -- -- 83
2019-03-25 03:00:00 3.3 11 Sudeste 24 Este 0 -- -- 78
2019-03-25 02:00:00 3.8 12 Este 17 Este 0 -- -- 77
2019-03-25 01:00:00 5.7 16 Este 24 Este 0 -- -- 71
2019-03-25 00:00:00 6.8 12 Este 20 Este 0 -- -- 63
2019-03-24 23:00:00 7.7 13 Este 32 Este 0 -- -- 58
2019-03-24 22:00:00 9.2 19 Este 51 Nordeste 0 -- -- 49
2019-03-24 21:00:00 9.7 28 Nordeste 50 Nordeste 0 -- -- 57
2019-03-24 20:00:00 10.8 25 Nordeste 44 Nordeste 0 -- -- 54
2019-03-24 19:00:00 12.8 24 Nordeste 36 Nordeste 0 -- -- 42
2019-03-24 18:00:00 14.3 22 Nordeste 36 Nordeste 0 -- -- 39
2019-03-24 17:00:00 15.1 22 Nordeste 40 Nordeste 0 -- -- 33
2019-03-24 16:00:00 15.3 16 Este 30 Este 0 -- -- 36
2019-03-24 15:00:00 16.8 21 Sudeste 32 Este 0 -- -- 32
2019-03-24 14:00:00 16.5 15 Este 29 Este 0 -- -- 30
2019-03-24 13:00:00 15.3 11 Sudeste 34 Este 0 -- -- 30
2019-03-24 12:00:00 15.3 15 Sudeste 27 Sudeste 0 -- -- 33
2019-03-24 11:00:00 14.1 19 Sudeste 27 Este 0 -- -- 38
2019-03-24 10:00:00 11.3 13 Sudeste 17 Sudeste 0 -- -- 49
2019-03-24 09:00:00 6.2 6 Este 12 Este 0 -- -- 65
2019-03-24 08:00:00 1.4 0 Calma 5 Este 0 -- -- 77
2019-03-24 07:00:00 -0.5 0 Calma 0 Calma 0 -- -- 78
2019-03-24 06:00:00 -0.5 0 Calma 2 Oeste 0 -- -- 77
2019-03-24 05:00:00 0.4 0 Calma 4 Noroeste 0 -- -- 75
2019-03-24 04:00:00 0.2 2 Oeste 4 Oeste 0 -- -- 75
2019-03-24 03:00:00 1.4 4 Noroeste 6 Oeste 0 -- -- 72
2019-03-24 02:00:00 2.7 0 Calma 4 Norte 0 -- -- 64
2019-03-24 01:00:00 3.1 0 Calma 4 Este 0 -- -- 60
2019-03-24 00:00:00 3.9 0 Calma 3 Este 0 -- -- 61
2019-03-23 23:00:00 5.1 0 Calma 6 Sudeste 0 -- -- 58
2019-03-23 22:00:00 7 0 Calma 6 Oeste 0 -- -- 50
2019-03-23 21:00:00 9.3 3 Noroeste 8 Este 0 -- -- 45
2019-03-23 20:00:00 10.7 9 Este 14 Este 0 -- -- 43
2019-03-23 19:00:00 13 11 Este 23 Sudeste 0 -- -- 39
2019-03-23 18:00:00 13.8 12 Sudeste 28 Este 0 -- -- 42
2019-03-23 17:00:00 15.8 18 Este 33 Este 0 -- -- 36
2019-03-23 16:00:00 15.4 27 Sudeste 35 Sudeste 0 -- -- 37
2019-03-23 15:00:00 15.5 13 Este 25 Este 0 -- -- 32
2019-03-23 14:00:00 15.7 4 Nordeste 27 Sudeste 0 -- -- 32
2019-03-23 13:00:00 15.5 12 Este 27 Sudeste 0 -- -- 33
2019-03-23 12:00:00 14.6 9 Este 24 Este 0 -- -- 37
2019-03-23 11:00:00 13.1 17 Este 22 Este 0 -- -- 41
2019-03-23 10:00:00 9.7 13 Sudeste 17 Sudeste 0 -- -- 60
2019-03-23 09:00:00 2.6 2 Oeste 5 Nordeste 0 -- -- 83
2019-03-23 08:00:00 0.7 0 Calma 2 Este 0 -- -- 85
2019-03-23 07:00:00 -0.8 0 Calma 4 Sudeste 0 -- -- 84
2019-03-23 06:00:00 -0.9 0 Calma 3 Oeste 0 -- -- 86
2019-03-23 05:00:00 -0.4 0 Calma 5 Sudeste 0 -- -- 82
2019-03-23 04:00:00 -0.3 0 Calma 6 Sudoeste 0 -- -- 81
2019-03-23 03:00:00 -0.7 0 Calma 5 Norte 0 -- -- 82
2019-03-23 02:00:00 0.6 2 Noroeste 5 Norte 0 -- -- 77
2019-03-23 01:00:00 0.7 0 Calma 5 Sudoeste 0 -- -- 75
2019-03-23 00:00:00 2.7 0 Calma 4 Sudeste 0 -- -- 68
2019-03-22 23:00:00 3.2 0 Calma 4 Oeste 0 -- -- 65
2019-03-22 22:00:00 4.7 3 Sudoeste 8 Oeste 0 -- -- 60
2019-03-22 21:00:00 7.8 0 Calma 10 Este 0 -- -- 50
2019-03-22 20:00:00 9.6 9 Nordeste 20 Sudeste 0 -- -- 45
2019-03-22 19:00:00 11.7 17 Sudeste 30 Sudeste 0 -- -- 40
2019-03-22 18:00:00 13.3 23 Sudeste 31 Este 0 -- -- 36
2019-03-22 17:00:00 14.3 22 Este 34 Este 0 -- -- 31
2019-03-22 16:00:00 14.8 19 Sudeste 30 Este 0 -- -- 29
2019-03-22 15:00:00 14.7 13 Este 23 Sudeste 0 -- -- 30
2019-03-22 14:00:00 14.2 11 Oeste 20 Oeste 0 -- -- 30
2019-03-22 13:00:00 13 9 Oeste 15 Oeste 0 -- -- 29
2019-03-22 12:00:00 11.7 5 Noroeste 14 Oeste 0 -- -- 34
2019-03-22 11:00:00 9.4 3 Sudoeste 8 Oeste 0 -- -- 38
2019-03-22 10:00:00 5.1 2 Sur 5 Sudoeste 0 -- -- 64
2019-03-22 09:00:00 0.2 0 Calma 3 Sur 0 -- -- 80
2019-03-22 08:00:00 -3.4 0 Calma 3 Este 0 -- -- 88
2019-03-22 07:00:00 -4.4 0 Calma 4 Noroeste 0 -- -- 87
2019-03-22 06:00:00 -3.9 0 Calma 5 Oeste 0 -- -- 87
2019-03-22 05:00:00 -3.9 2 Este 3 Noroeste 0 -- -- 86
2019-03-22 04:00:00 -3.3 2 Este 3 Sudeste 0 -- -- 83
2019-03-22 03:00:00 -2.5 0 Calma 2 Este 0 -- -- 85
2019-03-22 02:00:00 -2.1 0 Calma 2 Sudeste 0 -- -- 82
2019-03-22 01:00:00 -0.8 2 Este 6 Oeste 0 -- -- 75
2019-03-22 00:00:00 0.8 0 Calma 15 Este 0 -- -- 74
2019-03-21 23:00:00 2.5 3 Sudeste 14 Este 0 -- -- 68
2019-03-21 22:00:00 2.8 3 Sudeste 24 Este 0 -- -- 69
2019-03-21 21:00:00 4.6 18 Este 25 Este 0 -- -- 62
2019-03-21 20:00:00 5.7 15 Este 27 Sudeste 0 -- -- 57
2019-03-21 19:00:00 7.7 18 Sudeste 32 Sudeste 0 -- -- 52
2019-03-21 18:00:00 9.3 25 Sudeste 33 Este 0 -- -- 48
2019-03-21 17:00:00 10.3 23 Sudeste 33 Este 0 -- -- 45
2019-03-21 16:00:00 10.8 20 Este 31 Este 0 -- -- 37
2019-03-21 15:00:00 10.7 19 Este 26 Este 0 -- -- 31
2019-03-21 14:00:00 10 18 Sudeste 31 Este 0 -- -- 30
2019-03-21 13:00:00 8.4 17 Este 30 Este 0 -- -- 39
2019-03-21 12:00:00 6.7 21 Este 35 Sudeste 0 -- -- 47
2019-03-21 11:00:00 5.1 21 Sudeste 35 Este 0 -- -- 50
2019-03-21 10:00:00 3.3 19 Este 27 Este 0 -- -- 61
2019-03-21 09:00:00 0.6 6 Sudeste 16 Este 0 -- -- 79
2019-03-21 08:00:00 -2.4 8 Este 15 Este 0 -- -- 87
2019-03-21 07:00:00 -3.4 11 Este 17 Este 0 -- -- 86
2019-03-21 06:00:00 -2.9 13 Este 19 Este 0 -- -- 86
2019-03-21 05:00:00 -2.6 11 Este 18 Este 0 -- -- 88
2019-03-21 04:00:00 -2.7 9 Sudeste 21 Sudeste 0 -- -- 87
2019-03-21 03:00:00 -1.9 16 Sudeste 22 Sudeste 0 -- -- 86
2019-03-21 02:00:00 -1.2 13 Sudeste 22 Sudeste 0 -- -- 84
2019-03-21 01:00:00 -1 19 Sudeste 24 Sudeste 0 -- -- 83
2019-03-21 00:00:00 -0.2 14 Este 27 Este 0 -- -- 79
2019-03-20 23:00:00 0.2 15 Este 28 Este 0 -- -- 77
2019-03-20 22:00:00 0.8 13 Este 38 Nordeste 0 -- -- 73
2019-03-20 21:00:00 1.4 25 Nordeste 36 Nordeste 0 -- -- 68
2019-03-20 20:00:00 2.4 26 Nordeste 38 Nordeste 0 -- -- 64
2019-03-20 19:00:00 4 18 Nordeste 38 Nordeste 0 -- -- 59
2019-03-20 18:00:00 5.2 24 Nordeste 40 Nordeste 0 -- -- 58
2019-03-20 17:00:00 6.1 28 Nordeste 39 Nordeste 0 -- -- 58
2019-03-20 16:00:00 7 21 Nordeste 36 Nordeste 0 -- -- 55
2019-03-20 15:00:00 7.3 14 Sudeste 28 Sudeste 0 -- -- 51
2019-03-20 14:00:00 5.9 20 Nordeste 35 Nordeste 0 -- -- 60
2019-03-20 13:00:00 5.5 16 Nordeste 32 Nordeste 0 -- -- 64
2019-03-20 12:00:00 5.2 19 Sudeste 34 Este 0 -- -- 54
2019-03-20 11:00:00 4.4 16 Nordeste 36 Este 0 -- -- 63
2019-03-20 10:00:00 3.2 17 Nordeste 41 Este 0 -- -- 69
2019-03-20 09:00:00 2.2 9 Este 19 Sudeste 0 -- -- 86
2019-03-20 08:00:00 0.6 8 Este 12 Este 0 -- -- 89
2019-03-20 07:00:00 0.7 12 Nordeste 32 Nordeste 0 -- -- 87
2019-03-20 06:00:00 1.1 3 Norte 26 Nordeste 0 -- -- 81
2019-03-20 05:00:00 1.1 11 Norte 27 Nordeste 0 -- -- 80
2019-03-20 04:00:00 1 6 Norte 32 Nordeste 0 -- -- 80
2019-03-20 03:00:00 1.2 7 Norte 27 Nordeste 0 -- -- 80
2019-03-20 02:00:00 1.1 6 Nordeste 48 Nordeste 0 -- -- 83
2019-03-20 01:00:00 1.2 21 Este 49 Nordeste 0 -- -- 84
2019-03-20 00:00:00 1.3 16 Nordeste 54 Nordeste 0 -- -- 86
2019-03-19 23:00:00 1.2 23 Este 56 Este 0 -- -- 89
2019-03-19 22:00:00 1.4 21 Este 51 Este 0 -- -- 87
2019-03-19 21:00:00 1.7 6 Nordeste 33 Este 0.2 -- -- 86
2019-03-19 20:00:00 2.2 12 Sudeste 27 Este 0.2 -- -- 85
2019-03-19 19:00:00 2.9 6 Sur 27 Oeste 0.2 -- -- 82
2019-03-19 18:00:00 3.1 6 Sur 22 Sudoeste 0.2 -- -- 83
2019-03-19 17:00:00 3.7 5 Sur 22 Este 0.2 -- -- 84
2019-03-19 16:00:00 3.7 16 Sudeste 32 Sudeste 0 -- -- 83
2019-03-19 15:00:00 3.8 18 Este 41 Noroeste 0 -- -- 85
2019-03-19 14:00:00 4.7 11 Sudeste 42 Sudeste 0 -- -- 72
2019-03-19 13:00:00 4.4 12 Sudeste 38 Este 0 -- -- 78
2019-03-19 12:00:00 5.3 14 Sur 29 Este 0 -- -- 71
2019-03-19 11:00:00 4.3 20 Noroeste 45 Norte 0 -- -- 75
2019-03-19 10:00:00 3.2 8 Sudoeste 24 Sur 0 -- -- 84
2019-03-19 09:00:00 1.9 8 Sudeste 15 Sudeste 0 -- -- 89
2019-03-19 08:00:00 1.4 6 Sudeste 10 Sudoeste 0 -- -- 89
2019-03-19 07:00:00 1.7 7 Sudoeste 14 Oeste 0 -- -- 85
2019-03-19 06:00:00 2.3 7 Sudeste 26 Sudoeste 0 -- -- 78
2019-03-19 05:00:00 2.4 11 Sudoeste 18 Sur 0 -- -- 76
2019-03-19 04:00:00 2.2 4 Sur 19 Nordeste 0 -- -- 76
2019-03-19 03:00:00 1.9 12 Nordeste 26 Norte 0 -- -- 74
2019-03-19 02:00:00 2.1 12 Nordeste 27 Este 0 -- -- 75
2019-03-19 01:00:00 2.1 11 Nordeste 28 Nordeste 0 -- -- 73
2019-03-19 00:00:00 2 4 Norte 21 Norte 0 -- -- 73